Aérodrome :
LOGIN :

S'inscrire | Disclaimer

   EN    FR    IT 

 










Légende :    VFR   VFR Marginal   IFR   IFR Intensif   IFR Très Intensif
Visi : 
Plafond : 
>= 8 km
>= 3000ft
5 à 8 km
1000 à 3000 ft
1500m à 5 km
500 à 1000 ft
800 à 1500m
200 à 500 ft
< 800m
< 200 ft
Symboles :   Orages  Brouillard  Fortes neiges  Fortes précipitations  Vent > 20 kt
SIGMETs :   Divers  Orages  Givrage  Turbulence  Onde Orograph.  Cendres Volcan.







- Altitude de l'aérodrome : 220 ft
- Code IATA : CWL
- Voir les cartes d'approche


EGFF - Cardiff Rhoose

DERNIER METAR :
  • 181820Z AUTO 16006KT 9999 FEW042 08/07 Q1000

METARs EXPIRÉS :
  • 181750Z AUTO 15005KT 9999 NCD 08/07 Q1000
  • 181720Z AUTO 16005KT 9999 -RA SCT041 08/07 Q1000
  • 181650Z AUTO 18004KT 9999 -RA SCT036/// BKN043/// //////TCU 08/07 Q1000
  • 181620Z AUTO 21005KT 6000 -RA OVC036/// //////TCU 08/07 Q1000
  • 181550Z AUTO 21004KT 7000 -RA BKN038/// OVC045/// //////TCU 08/08 Q1000

TAF AMD TAF EGFF
Valide du 18 à 18h jusqu'au 19 à 18h UTC


181801Z 1818/1918 15015KT 9999 SCT020
BECMG 1818/1821 21011KT
TEMPO 1818/1820 4000 RA BKN012
TEMPO 1820/1912 7000 SHRA BKN014 BKN030CB
PROB40
TEMPO 1820/1912 4000 +SHRA
TEMPO 1912/1918 21015G25KT 4000 +SHRA BKN014 BKN030CB
ATIS : +44 1446 729 319
Pas de NOTAMs connus pour ce terrain.
2 SIGMETs publiés pour la FIR London (EGTT) :
 
Onde orographique forte
EGTT SIGMET 09 VALID 181900/182300 EGRR
EGTT LONDON FIR SEV MTW FCST WI N5220 W00530 - N5500 W00530 - N5500 W00015 - N5024 W00255 - N4959 W00548 - N5220 W00530 FL030/250 STNR WKN=
Onde orographique forte
EGTT SIGMET 08 VALID 181500/181900 EGRR
EGTT LONDON FIR SEV MTW FCST WI N5220 W00530 - N5500 W00530 - N5500 W00015 - N5024 W00255 - N4959 W00548 - N5220 W00530 FL030/250 STNR WKN=



MET'MAP, la Météo Aéronautique d'un coup d'oeil ! - Copyright ORBIFLY Décembre 2007 - Disclaimer

ORBIFLY MET'MAP TEAM :

Programmation & Développement : Alexandra Zaïnal
Conception & Développement : Baudouin d'Aumeries
Co-Programmation & Développement : Marc-Olivier Méhu
Soutien technique & logistique : Manuel Goepfert

Contact : metmap@orbifly.com




SOURCES & CREDITS :

   NOAA